sensor_id;sensor_type;location;lat;lon;timestamp;pressure;altitude;pressure_sealevel;temperature;humidity
38880;BME280;25887;30.194;-97.880;2023-04-26T00:01:02;97896.03;;;25.45;57.28
38880;BME280;25887;30.194;-97.880;2023-04-26T00:03:31;97898.03;;;25.41;56.99
38880;BME280;25887;30.194;-97.880;2023-04-26T00:05:58;97896.44;;;25.39;57.01
38880;BME280;25887;30.194;-97.880;2023-04-26T00:08:30;97895.69;;;25.37;57.24
38880;BME280;25887;30.194;-97.880;2023-04-26T00:10:56;97908.22;;;25.33;56.80
38880;BME280;25887;30.194;-97.880;2023-04-26T00:13:22;97920.63;;;25.31;57.00
38880;BME280;25887;30.194;-97.880;2023-04-26T00:15:48;97924.28;;;25.28;56.98
38880;BME280;25887;30.194;-97.880;2023-04-26T00:18:15;97918.41;;;25.25;57.01
38880;BME280;25887;30.194;-97.880;2023-04-26T00:20:42;97924.72;;;25.22;57.08
38880;BME280;25887;30.194;-97.880;2023-04-26T00:23:08;97934.47;;;25.20;57.09
38880;BME280;25887;30.194;-97.880;2023-04-26T00:25:36;97924.19;;;25.17;57.38
38880;BME280;25887;30.194;-97.880;2023-04-26T00:28:02;97935.75;;;25.15;57.05
38880;BME280;25887;30.194;-97.880;2023-04-26T00:30:29;97940.47;;;25.10;57.17
38880;BME280;25887;30.194;-97.880;2023-04-26T00:32:55;97946.78;;;25.07;57.40
38880;BME280;25887;30.194;-97.880;2023-04-26T00:35:21;97933.16;;;25.00;57.50
38880;BME280;25887;30.194;-97.880;2023-04-26T00:37:47;97929.25;;;24.93;57.62
38880;BME280;25887;30.194;-97.880;2023-04-26T00:40:13;97927.00;;;24.87;57.71
38880;BME280;25887;30.194;-97.880;2023-04-26T00:42:41;97920.34;;;24.82;58.08
38880;BME280;25887;30.194;-97.880;2023-04-26T00:45:07;97923.31;;;24.77;57.98
38880;BME280;25887;30.194;-97.880;2023-04-26T00:47:34;97931.56;;;24.71;58.42
38880;BME280;25887;30.194;-97.880;2023-04-26T00:50:01;97914.63;;;24.62;58.19
38880;BME280;25887;30.194;-97.880;2023-04-26T00:52:28;97923.72;;;24.57;58.53
38880;BME280;25887;30.194;-97.880;2023-04-26T00:54:55;97911.94;;;24.50;58.73
38880;BME280;25887;30.194;-97.880;2023-04-26T00:57:22;97906.22;;;24.43;58.72
38880;BME280;25887;30.194;-97.880;2023-04-26T00:59:48;97899.59;;;24.37;58.58
38880;BME280;25887;30.194;-97.880;2023-04-26T01:02:15;97907.75;;;24.33;59.00
38880;BME280;25887;30.194;-97.880;2023-04-26T01:04:42;97917.59;;;24.29;58.84
38880;BME280;25887;30.194;-97.880;2023-04-26T01:07:09;97910.84;;;24.25;59.09
38880;BME280;25887;30.194;-97.880;2023-04-26T01:09:36;97918.91;;;24.22;59.12
38880;BME280;25887;30.194;-97.880;2023-04-26T01:12:02;97926.00;;;24.20;59.06
38880;BME280;25887;30.194;-97.880;2023-04-26T01:14:30;97927.91;;;24.18;59.19
38880;BME280;25887;30.194;-97.880;2023-04-26T01:16:56;97930.72;;;24.15;59.19
38880;BME280;25887;30.194;-97.880;2023-04-26T01:19:22;97936.16;;;24.12;59.51
38880;BME280;25887;30.194;-97.880;2023-04-26T01:21:50;97937.28;;;24.08;59.38
38880;BME280;25887;30.194;-97.880;2023-04-26T01:24:16;97940.84;;;24.07;59.47
38880;BME280;25887;30.194;-97.880;2023-04-26T01:26:42;97950.63;;;24.05;59.37
38880;BME280;25887;30.194;-97.880;2023-04-26T01:29:19;97945.53;;;24.02;59.79
38880;BME280;25887;30.194;-97.880;2023-04-26T01:31:46;97951.81;;;23.99;59.43
38880;BME280;25887;30.194;-97.880;2023-04-26T01:34:13;97952.00;;;23.96;59.65
38880;BME280;25887;30.194;-97.880;2023-04-26T01:36:39;97954.72;;;23.95;59.83
38880;BME280;25887;30.194;-97.880;2023-04-26T01:39:06;97964.47;;;23.93;59.77
38880;BME280;25887;30.194;-97.880;2023-04-26T01:41:35;97963.63;;;23.92;59.81
38880;BME280;25887;30.194;-97.880;2023-04-26T01:44:01;97966.34;;;23.90;59.90
38880;BME280;25887;30.194;-97.880;2023-04-26T01:46:27;97969.91;;;23.89;60.05
38880;BME280;25887;30.194;-97.880;2023-04-26T01:48:53;97972.53;;;23.89;59.99
38880;BME280;25887;30.194;-97.880;2023-04-26T01:51:20;97979.63;;;23.87;59.77
38880;BME280;25887;30.194;-97.880;2023-04-26T01:53:46;97976.16;;;23.87;60.06
38880;BME280;25887;30.194;-97.880;2023-04-26T01:56:12;97983.31;;;23.85;59.84
38880;BME280;25887;30.194;-97.880;2023-04-26T01:58:38;97985.19;;;23.83;60.34
38880;BME280;25887;30.194;-97.880;2023-04-26T02:01:06;97993.91;;;23.83;60.40
38880;BME280;25887;30.194;-97.880;2023-04-26T02:03:33;98002.69;;;23.82;60.24
38880;BME280;25887;30.194;-97.880;2023-04-26T02:06:00;98005.31;;;23.82;60.56
38880;BME280;25887;30.194;-97.880;2023-04-26T02:08:26;98011.50;;;23.81;60.69
38880;BME280;25887;30.194;-97.880;2023-04-26T02:10:53;97999.41;;;23.79;60.53
38880;BME280;25887;30.194;-97.880;2023-04-26T02:13:19;98010.94;;;23.76;60.66
38880;BME280;25887;30.194;-97.880;2023-04-26T02:15:47;98012.81;;;23.74;60.73
38880;BME280;25887;30.194;-97.880;2023-04-26T02:18:13;98008.56;;;23.72;60.61
38880;BME280;25887;30.194;-97.880;2023-04-26T02:20:43;98008.75;;;23.69;60.95
38880;BME280;25887;30.194;-97.880;2023-04-26T02:23:11;98012.41;;;23.66;60.77
38880;BME280;25887;30.194;-97.880;2023-04-26T02:25:38;98009.97;;;23.63;60.67
38880;BME280;25887;30.194;-97.880;2023-04-26T02:28:04;98017.09;;;23.61;60.97
38880;BME280;25887;30.194;-97.880;2023-04-26T02:30:31;98019.88;;;23.58;61.03
38880;BME280;25887;30.194;-97.880;2023-04-26T02:32:57;98028.72;;;23.55;61.18
38880;BME280;25887;30.194;-97.880;2023-04-26T02:35:24;98045.50;;;23.53;61.23
38880;BME280;25887;30.194;-97.880;2023-04-26T02:37:50;98046.53;;;23.50;61.20
38880;BME280;25887;30.194;-97.880;2023-04-26T02:40:20;98049.41;;;23.46;61.33
38880;BME280;25887;30.194;-97.880;2023-04-26T02:42:47;98052.22;;;23.43;61.24
38880;BME280;25887;30.194;-97.880;2023-04-26T02:45:13;98040.94;;;23.41;61.27
38880;BME280;25887;30.194;-97.880;2023-04-26T02:47:39;98043.66;;;23.39;61.57
38880;BME280;25887;30.194;-97.880;2023-04-26T02:50:06;98049.94;;;23.37;61.66
38880;BME280;25887;30.194;-97.880;2023-04-26T02:52:36;98044.09;;;23.31;61.65
38880;BME280;25887;30.194;-97.880;2023-04-26T02:55:03;98045.88;;;23.31;61.30
38880;BME280;25887;30.194;-97.880;2023-04-26T02:57:30;98044.28;;;23.28;61.24
38880;BME280;25887;30.194;-97.880;2023-04-26T02:59:57;98051.38;;;23.26;61.81
38880;BME280;25887;30.194;-97.880;2023-04-26T03:02:24;98068.03;;;23.25;61.46
38880;BME280;25887;30.194;-97.880;2023-04-26T03:04:50;98065.69;;;23.21;61.80
38880;BME280;25887;30.194;-97.880;2023-04-26T03:07:16;98071.88;;;23.20;61.94
38880;BME280;25887;30.194;-97.880;2023-04-26T03:09:42;98074.53;;;23.18;61.61
38880;BME280;25887;30.194;-97.880;2023-04-26T03:12:09;98074.63;;;23.17;61.61
38880;BME280;25887;30.194;-97.880;2023-04-26T03:14:35;98081.66;;;23.16;61.83
38880;BME280;25887;30.194;-97.880;2023-04-26T03:17:01;98079.13;;;23.15;61.68
38880;BME280;25887;30.194;-97.880;2023-04-26T03:19:28;98086.16;;;23.14;61.95
38880;BME280;25887;30.194;-97.880;2023-04-26T03:21:54;98089.69;;;23.13;61.71
38880;BME280;25887;30.194;-97.880;2023-04-26T03:24:21;98098.41;;;23.14;62.15
38880;BME280;25887;30.194;-97.880;2023-04-26T03:26:48;98104.59;;;23.13;61.86
38880;BME280;25887;30.194;-97.880;2023-04-26T03:29:15;98109.81;;;23.13;62.12
38880;BME280;25887;30.194;-97.880;2023-04-26T03:31:41;98107.25;;;23.11;62.17
38880;BME280;25887;30.194;-97.880;2023-04-26T03:34:07;98103.88;;;23.09;62.48
38880;BME280;25887;30.194;-97.880;2023-04-26T03:36:34;98113.63;;;23.07;62.56
38880;BME280;25887;30.194;-97.880;2023-04-26T03:39:00;98117.31;;;23.03;62.42
38880;BME280;25887;30.194;-97.880;2023-04-26T03:41:26;98126.06;;;23.03;62.30
38880;BME280;25887;30.194;-97.880;2023-04-26T03:43:54;98136.59;;;23.02;62.80
38880;BME280;25887;30.194;-97.880;2023-04-26T03:46:21;98143.69;;;23.00;62.53
38880;BME280;25887;30.194;-97.880;2023-04-26T03:48:47;98143.69;;;23.00;62.47
38880;BME280;25887;30.194;-97.880;2023-04-26T03:51:13;98154.28;;;22.98;62.42
38880;BME280;25887;30.194;-97.880;2023-04-26T03:53:40;98167.28;;;23.00;62.92
38880;BME280;25887;30.194;-97.880;2023-04-26T03:56:06;98175.13;;;23.00;62.82
38880;BME280;25887;30.194;-97.880;2023-04-26T03:58:33;98177.75;;;23.00;62.83
38880;BME280;25887;30.194;-97.880;2023-04-26T04:00:59;98182.06;;;23.01;63.05
38880;BME280;25887;30.194;-97.880;2023-04-26T04:03:25;98174.13;;;23.02;63.05
38880;BME280;25887;30.194;-97.880;2023-04-26T04:05:52;98181.13;;;23.02;62.50
38880;BME280;25887;30.194;-97.880;2023-04-26T04:08:18;98186.31;;;23.03;63.03
38880;BME280;25887;30.194;-97.880;2023-04-26T04:10:44;98188.06;;;23.03;63.10
38880;BME280;25887;30.194;-97.880;2023-04-26T04:13:10;98190.69;;;23.03;63.01
38880;BME280;25887;30.194;-97.880;2023-04-26T04:15:37;98188.06;;;23.03;63.18
38880;BME280;25887;30.194;-97.880;2023-04-26T04:18:03;98186.38;;;23.02;63.06
38880;BME280;25887;30.194;-97.880;2023-04-26T04:20:29;98189.78;;;23.04;63.37
38880;BME280;25887;30.194;-97.880;2023-04-26T04:22:55;98191.63;;;23.02;63.11
38880;BME280;25887;30.194;-97.880;2023-04-26T04:25:23;98188.06;;;23.03;63.03
38880;BME280;25887;30.194;-97.880;2023-04-26T04:27:50;98183.75;;;23.02;63.61
38880;BME280;25887;30.194;-97.880;2023-04-26T04:30:18;98194.31;;;23.00;63.52
38880;BME280;25887;30.194;-97.880;2023-04-26T04:32:44;98184.03;;;22.97;63.42
38880;BME280;25887;30.194;-97.880;2023-04-26T04:35:11;98191.97;;;22.96;63.89
38880;BME280;25887;30.194;-97.880;2023-04-26T04:37:38;98186.88;;;22.93;63.97
38880;BME280;25887;30.194;-97.880;2023-04-26T04:40:06;98180.13;;;22.89;63.82
38880;BME280;25887;30.194;-97.880;2023-04-26T04:42:34;98178.41;;;22.88;64.28
38880;BME280;25887;30.194;-97.880;2023-04-26T04:45:01;98178.41;;;22.88;63.96
38880;BME280;25887;30.194;-97.880;2023-04-26T04:47:27;98174.19;;;22.85;64.37
38880;BME280;25887;30.194;-97.880;2023-04-26T04:49:54;98167.31;;;22.83;64.13
38880;BME280;25887;30.194;-97.880;2023-04-26T04:52:20;98172.47;;;22.84;64.57
38880;BME280;25887;30.194;-97.880;2023-04-26T04:54:47;98172.63;;;22.81;64.64
38880;BME280;25887;30.194;-97.880;2023-04-26T04:57:13;98170.84;;;22.82;64.28
38880;BME280;25887;30.194;-97.880;2023-04-26T04:59:41;98156.06;;;22.80;64.55
38880;BME280;25887;30.194;-97.880;2023-04-26T05:02:08;98148.22;;;22.80;64.54
38880;BME280;25887;30.194;-97.880;2023-04-26T05:04:34;98148.13;;;22.82;64.39
38880;BME280;25887;30.194;-97.880;2023-04-26T05:07:00;98142.88;;;22.82;64.79
38880;BME280;25887;30.194;-97.880;2023-04-26T05:09:26;98133.25;;;22.83;64.88
38880;BME280;25887;30.194;-97.880;2023-04-26T05:11:52;98121.09;;;22.82;64.87
38880;BME280;25887;30.194;-97.880;2023-04-26T05:14:18;98105.38;;;22.82;64.66
38880;BME280;25887;30.194;-97.880;2023-04-26T05:16:45;98097.56;;;22.80;65.13
38880;BME280;25887;30.194;-97.880;2023-04-26T05:19:11;98086.44;;;22.76;65.66
38880;BME280;25887;30.194;-97.880;2023-04-26T05:21:38;98088.22;;;22.76;65.59
38880;BME280;25887;30.194;-97.880;2023-04-26T05:24:04;98082.97;;;22.76;65.70
38880;BME280;25887;30.194;-97.880;2023-04-26T05:26:30;98084.00;;;22.73;65.20
38880;BME280;25887;30.194;-97.880;2023-04-26T05:28:56;98092.69;;;22.74;65.25
38880;BME280;25887;30.194;-97.880;2023-04-26T05:31:23;98083.16;;;22.73;65.74
38880;BME280;25887;30.194;-97.880;2023-04-26T05:33:49;98084.84;;;22.74;66.04
38880;BME280;25887;30.194;-97.880;2023-04-26T05:36:16;98082.31;;;22.72;65.84
38880;BME280;25887;30.194;-97.880;2023-04-26T05:38:42;98074.44;;;22.72;66.27
38880;BME280;25887;30.194;-97.880;2023-04-26T05:41:08;98077.97;;;22.71;66.29
38880;BME280;25887;30.194;-97.880;2023-04-26T05:43:34;98078.06;;;22.70;66.45
38880;BME280;25887;30.194;-97.880;2023-04-26T05:46:00;98076.28;;;22.70;66.14
38880;BME280;25887;30.194;-97.880;2023-04-26T05:48:26;98083.19;;;22.71;66.48
38880;BME280;25887;30.194;-97.880;2023-04-26T05:50:54;98074.50;;;22.71;66.68
38880;BME280;25887;30.194;-97.880;2023-04-26T05:53:22;98074.50;;;22.71;66.86
38880;BME280;25887;30.194;-97.880;2023-04-26T05:55:48;98064.97;;;22.70;66.70
38880;BME280;25887;30.194;-97.880;2023-04-26T05:58:15;98071.97;;;22.69;66.94
38880;BME280;25887;30.194;-97.880;2023-04-26T06:00:41;98075.53;;;22.68;67.11
38880;BME280;25887;30.194;-97.880;2023-04-26T06:03:07;98072.91;;;22.68;66.99
38880;BME280;25887;30.194;-97.880;2023-04-26T06:05:35;98073.00;;;22.67;66.76
38880;BME280;25887;30.194;-97.880;2023-04-26T06:08:02;98075.53;;;22.68;67.23
38880;BME280;25887;30.194;-97.880;2023-04-26T06:10:29;98074.59;;;22.69;66.98
38880;BME280;25887;30.194;-97.880;2023-04-26T06:12:55;98053.72;;;22.68;67.33
38880;BME280;25887;30.194;-97.880;2023-04-26T06:15:21;98057.28;;;22.67;67.23
38880;BME280;25887;30.194;-97.880;2023-04-26T06:17:47;98062.44;;;22.68;67.22
38880;BME280;25887;30.194;-97.880;2023-04-26T06:20:13;98071.03;;;22.70;67.09
38880;BME280;25887;30.194;-97.880;2023-04-26T06:22:40;98057.94;;;22.70;66.81
38880;BME280;25887;30.194;-97.880;2023-04-26T06:25:07;98058.78;;;22.71;66.92
38880;BME280;25887;30.194;-97.880;2023-04-26T06:27:34;98054.47;;;22.70;67.38
38880;BME280;25887;30.194;-97.880;2023-04-26T06:30:00;98057.00;;;22.71;67.22
38880;BME280;25887;30.194;-97.880;2023-04-26T06:32:26;98051.78;;;22.71;66.92
38880;BME280;25887;30.194;-97.880;2023-04-26T06:34:53;98046.53;;;22.71;66.86
38880;BME280;25887;30.194;-97.880;2023-04-26T06:37:19;98045.69;;;22.71;67.38
38880;BME280;25887;30.194;-97.880;2023-04-26T06:39:45;98056.13;;;22.72;67.24
38880;BME280;25887;30.194;-97.880;2023-04-26T06:42:12;98049.25;;;22.70;67.02
38880;BME280;25887;30.194;-97.880;2023-04-26T06:44:38;98050.94;;;22.71;67.26
38880;BME280;25887;30.194;-97.880;2023-04-26T06:47:06;98048.31;;;22.71;67.00
38880;BME280;25887;30.194;-97.880;2023-04-26T06:49:34;98036.06;;;22.71;66.83
38880;BME280;25887;30.194;-97.880;2023-04-26T06:52:00;98028.22;;;22.71;67.19
38880;BME280;25887;30.194;-97.880;2023-04-26T06:54:28;98020.34;;;22.71;66.97
38880;BME280;25887;30.194;-97.880;2023-04-26T06:56:55;98020.34;;;22.71;67.28
38880;BME280;25887;30.194;-97.880;2023-04-26T06:59:21;98021.19;;;22.72;67.36
38880;BME280;25887;30.194;-97.880;2023-04-26T07:01:48;98008.19;;;22.70;67.06
38880;BME280;25887;30.194;-97.880;2023-04-26T07:04:14;98014.22;;;22.72;66.96
38880;BME280;25887;30.194;-97.880;2023-04-26T07:06:43;98002.09;;;22.70;67.00
38880;BME280;25887;30.194;-97.880;2023-04-26T07:09:09;98003.72;;;22.72;67.04
38880;BME280;25887;30.194;-97.880;2023-04-26T07:11:37;97992.47;;;22.70;67.10
38880;BME280;25887;30.194;-97.880;2023-04-26T07:14:04;97998.66;;;22.69;67.34
38880;BME280;25887;30.194;-97.880;2023-04-26T07:16:30;97990.78;;;22.69;67.53
38880;BME280;25887;30.194;-97.880;2023-04-26T07:18:56;97995.00;;;22.72;67.15
38880;BME280;25887;30.194;-97.880;2023-04-26T07:21:23;97988.09;;;22.71;66.99
38880;BME280;25887;30.194;-97.880;2023-04-26T07:23:55;97974.16;;;22.70;67.17
38880;BME280;25887;30.194;-97.880;2023-04-26T07:26:22;97973.22;;;22.71;67.02
38880;BME280;25887;30.194;-97.880;2023-04-26T07:28:50;97972.38;;;22.71;67.23
38880;BME280;25887;30.194;-97.880;2023-04-26T07:31:17;97961.06;;;22.70;67.64
38880;BME280;25887;30.194;-97.880;2023-04-26T07:33:44;97965.44;;;22.70;67.55
38880;BME280;25887;30.194;-97.880;2023-04-26T07:36:10;97960.22;;;22.70;67.54
38880;BME280;25887;30.194;-97.880;2023-04-26T07:38:36;97961.22;;;22.67;67.11
38880;BME280;25887;30.194;-97.880;2023-04-26T07:41:03;97954.13;;;22.69;67.43
38880;BME280;25887;30.194;-97.880;2023-04-26T07:43:31;97966.28;;;22.70;67.27
38880;BME280;25887;30.194;-97.880;2023-04-26T07:46:00;97961.97;;;22.69;67.17
38880;BME280;25887;30.194;-97.880;2023-04-26T07:48:27;97965.44;;;22.70;67.26
38880;BME280;25887;30.194;-97.880;2023-04-26T07:50:54;97969.84;;;22.69;67.29
38880;BME280;25887;30.194;-97.880;2023-04-26T07:53:23;97966.47;;;22.67;67.63
38880;BME280;25887;30.194;-97.880;2023-04-26T07:55:50;97956.09;;;22.66;67.33
38880;BME280;25887;30.194;-97.880;2023-04-26T07:58:16;97955.16;;;22.67;67.56
38880;BME280;25887;30.194;-97.880;2023-04-26T08:00:43;97951.59;;;22.68;67.58
38880;BME280;25887;30.194;-97.880;2023-04-26T08:03:10;97957.69;;;22.68;67.26
38880;BME280;25887;30.194;-97.880;2023-04-26T08:05:37;97946.38;;;22.68;67.59
38880;BME280;25887;30.194;-97.880;2023-04-26T08:08:03;97954.22;;;22.68;67.35
38880;BME280;25887;30.194;-97.880;2023-04-26T08:10:29;97953.38;;;22.67;67.79
38880;BME280;25887;30.194;-97.880;2023-04-26T08:12:55;97943.84;;;22.66;67.85
38880;BME280;25887;30.194;-97.880;2023-04-26T08:15:22;97963.84;;;22.67;67.76
38880;BME280;25887;30.194;-97.880;2023-04-26T08:17:48;97959.47;;;22.68;67.58
38880;BME280;25887;30.194;-97.880;2023-04-26T08:20:17;97962.91;;;22.68;67.58
38880;BME280;25887;30.194;-97.880;2023-04-26T08:22:44;97960.31;;;22.68;67.57
38880;BME280;25887;30.194;-97.880;2023-04-26T08:25:10;97965.34;;;22.71;67.77
38880;BME280;25887;30.194;-97.880;2023-04-26T08:27:36;97959.28;;;22.71;67.50
38880;BME280;25887;30.194;-97.880;2023-04-26T08:30:03;97949.72;;;22.70;67.82
38880;BME280;25887;30.194;-97.880;2023-04-26T08:32:29;97943.66;;;22.69;68.00
38880;BME280;25887;30.194;-97.880;2023-04-26T08:34:56;97943.06;;;22.64;68.03
38880;BME280;25887;30.194;-97.880;2023-04-26T08:37:22;97946.47;;;22.66;67.90
38880;BME280;25887;30.194;-97.880;2023-04-26T08:39:48;97941.22;;;22.66;68.17
38880;BME280;25887;30.194;-97.880;2023-04-26T08:42:15;97940.38;;;22.66;67.90
38880;BME280;25887;30.194;-97.880;2023-04-26T08:44:43;97933.38;;;22.66;68.01
38880;BME280;25887;30.194;-97.880;2023-04-26T08:47:27;97935.97;;;22.66;67.75
38880;BME280;25887;30.194;-97.880;2023-04-26T08:49:57;97932.53;;;22.66;67.87
38880;BME280;25887;30.194;-97.880;2023-04-26T08:52:30;97934.31;;;22.65;67.74
38880;BME280;25887;30.194;-97.880;2023-04-26T08:54:58;97929.97;;;22.64;67.62
38880;BME280;25887;30.194;-97.880;2023-04-26T08:57:25;97933.38;;;22.66;67.78
38880;BME280;25887;30.194;-97.880;2023-04-26T08:59:55;97935.06;;;22.67;67.73
38880;BME280;25887;30.194;-97.880;2023-04-26T09:02:23;97928.13;;;22.66;67.89
38880;BME280;25887;30.194;-97.880;2023-04-26T09:04:50;97925.41;;;22.68;67.95
38880;BME280;25887;30.194;-97.880;2023-04-26T09:07:30;97931.50;;;22.68;67.88
38880;BME280;25887;30.194;-97.880;2023-04-26T09:10:40;97933.19;;;22.69;67.93
38880;BME280;25887;30.194;-97.880;2023-04-26T09:13:48;97935.19;;;22.64;67.80
38880;BME280;25887;30.194;-97.880;2023-04-26T09:16:14;97927.44;;;22.63;68.03
38880;BME280;25887;30.194;-97.880;2023-04-26T09:18:49;97931.69;;;22.65;68.08
38880;BME280;25887;30.194;-97.880;2023-04-26T09:21:17;97923.03;;;22.63;67.76
38880;BME280;25887;30.194;-97.880;2023-04-26T09:24:00;97922.88;;;22.66;67.82
38880;BME280;25887;30.194;-97.880;2023-04-26T09:26:29;97915.19;;;22.63;67.98
38880;BME280;25887;30.194;-97.880;2023-04-26T09:29:16;97918.59;;;22.65;67.75
38880;BME280;25887;30.194;-97.880;2023-04-26T09:31:44;97916.13;;;22.62;68.32
38880;BME280;25887;30.194;-97.880;2023-04-26T09:34:13;97916.97;;;22.63;68.18
38880;BME280;25887;30.194;-97.880;2023-04-26T09:36:53;97923.03;;;22.63;67.88
38880;BME280;25887;30.194;-97.880;2023-04-26T09:39:32;97920.41;;;22.63;68.14
38880;BME280;25887;30.194;-97.880;2023-04-26T09:41:59;97923.97;;;22.62;68.36
38880;BME280;25887;30.194;-97.880;2023-04-26T09:44:28;97927.53;;;22.61;68.40
38880;BME280;25887;30.194;-97.880;2023-04-26T09:47:02;97921.34;;;22.62;68.14
38880;BME280;25887;30.194;-97.880;2023-04-26T09:49:31;97923.13;;;22.62;68.43
38880;BME280;25887;30.194;-97.880;2023-04-26T09:52:02;97924.06;;;22.61;68.30
38880;BME280;25887;30.194;-97.880;2023-04-26T09:54:45;97914.34;;;22.63;68.27
38880;BME280;25887;30.194;-97.880;2023-04-26T09:57:13;97909.19;;;22.61;68.35
38880;BME280;25887;30.194;-97.880;2023-04-26T09:59:45;97899.66;;;22.60;68.53
38880;BME280;25887;30.194;-97.880;2023-04-26T10:02:19;97898.72;;;22.61;68.31
38880;BME280;25887;30.194;-97.880;2023-04-26T10:04:56;97905.66;;;22.62;68.37
38880;BME280;25887;30.194;-97.880;2023-04-26T10:07:25;97894.44;;;22.60;68.48
38880;BME280;25887;30.194;-97.880;2023-04-26T10:09:52;97894.34;;;22.62;68.54
38880;BME280;25887;30.194;-97.880;2023-04-26T10:12:19;97903.88;;;22.63;68.80
38880;BME280;25887;30.194;-97.880;2023-04-26T10:14:47;97905.66;;;22.62;68.91
38880;BME280;25887;30.194;-97.880;2023-04-26T10:17:13;97913.41;;;22.64;68.62
38880;BME280;25887;30.194;-97.880;2023-04-26T10:19:42;97910.88;;;22.62;68.72
38880;BME280;25887;30.194;-97.880;2023-04-26T10:22:24;97909.00;;;22.64;68.72
38880;BME280;25887;30.194;-97.880;2023-04-26T10:24:54;97904.72;;;22.63;68.74
38880;BME280;25887;30.194;-97.880;2023-04-26T10:30:17;97908.13;;;22.65;68.94
38880;BME280;25887;30.194;-97.880;2023-04-26T10:35:27;97909.78;;;22.66;68.97
38880;BME280;25887;30.194;-97.880;2023-04-26T10:40:33;97922.03;;;22.66;68.55
38880;BME280;25887;30.194;-97.880;2023-04-26T10:45:46;97912.31;;;22.68;68.93
38880;BME280;25887;30.194;-97.880;2023-04-26T10:48:16;97910.53;;;22.68;68.97
38880;BME280;25887;30.194;-97.880;2023-04-26T10:55:53;97907.75;;;22.71;69.00
38880;BME280;25887;30.194;-97.880;2023-04-26T10:58:33;97917.22;;;22.74;68.62
38880;BME280;25887;30.194;-97.880;2023-04-26T11:01:03;97920.69;;;22.74;68.61
38880;BME280;25887;30.194;-97.880;2023-04-26T11:03:30;97921.63;;;22.73;68.76
38880;BME280;25887;30.194;-97.880;2023-04-26T11:05:56;97924.97;;;22.75;68.80
38880;BME280;25887;30.194;-97.880;2023-04-26T11:08:28;97925.72;;;22.77;68.63
38880;BME280;25887;30.194;-97.880;2023-04-26T11:13:30;97930.97;;;22.77;69.07
38880;BME280;25887;30.194;-97.880;2023-04-26T11:16:03;97924.88;;;22.77;68.77
38880;BME280;25887;30.194;-97.880;2023-04-26T11:18:31;97925.72;;;22.77;68.95
38880;BME280;25887;30.194;-97.880;2023-04-26T11:20:58;97916.19;;;22.76;69.25
38880;BME280;25887;30.194;-97.880;2023-04-26T11:23:26;97917.03;;;22.77;69.40
38880;BME280;25887;30.194;-97.880;2023-04-26T11:25:57;97914.41;;;22.77;68.97
38880;BME280;25887;30.194;-97.880;2023-04-26T11:28:23;97917.88;;;22.77;69.16
38880;BME280;25887;30.194;-97.880;2023-04-26T11:30:49;97915.25;;;22.77;69.25
38880;BME280;25887;30.194;-97.880;2023-04-26T11:33:17;97925.72;;;22.77;69.22
38880;BME280;25887;30.194;-97.880;2023-04-26T11:35:47;97927.31;;;22.80;69.28
38880;BME280;25887;30.194;-97.880;2023-04-26T11:38:14;97929.94;;;22.80;68.85
38880;BME280;25887;30.194;-97.880;2023-04-26T11:40:41;97931.56;;;22.83;68.83
38880;BME280;25887;30.194;-97.880;2023-04-26T11:43:08;97935.88;;;22.84;68.87
38880;BME280;25887;30.194;-97.880;2023-04-26T11:45:37;97934.94;;;22.85;68.71
38880;BME280;25887;30.194;-97.880;2023-04-26T11:48:05;97938.44;;;22.85;69.04
38880;BME280;25887;30.194;-97.880;2023-04-26T11:50:33;97934.03;;;22.86;68.85
38880;BME280;25887;30.194;-97.880;2023-04-26T11:53:03;97931.41;;;22.86;68.86
38880;BME280;25887;30.194;-97.880;2023-04-26T11:55:31;97928.78;;;22.86;69.14
38880;BME280;25887;30.194;-97.880;2023-04-26T11:58:08;97924.41;;;22.86;69.15
38880;BME280;25887;30.194;-97.880;2023-04-26T12:00:34;97926.16;;;22.86;69.17
38880;BME280;25887;30.194;-97.880;2023-04-26T12:03:07;97930.47;;;22.87;68.88
38880;BME280;25887;30.194;-97.880;2023-04-26T12:05:36;97935.72;;;22.87;68.78
38880;BME280;25887;30.194;-97.880;2023-04-26T12:08:03;97933.03;;;22.88;69.01
38880;BME280;25887;30.194;-97.880;2023-04-26T12:10:34;97930.41;;;22.88;68.83
38880;BME280;25887;30.194;-97.880;2023-04-26T12:13:03;97937.16;;;22.92;69.04
38880;BME280;25887;30.194;-97.880;2023-04-26T12:15:31;97932.09;;;22.89;68.66
38880;BME280;25887;30.194;-97.880;2023-04-26T12:17:59;97943.50;;;22.88;68.82
38880;BME280;25887;30.194;-97.880;2023-04-26T12:20:30;97949.59;;;22.89;68.83
38880;BME280;25887;30.194;-97.880;2023-04-26T12:23:17;97959.03;;;22.91;68.81
38880;BME280;25887;30.194;-97.880;2023-04-26T12:25:54;97957.34;;;22.90;69.05
38880;BME280;25887;30.194;-97.880;2023-04-26T12:28:22;97959.88;;;22.92;68.77
38880;BME280;25887;30.194;-97.880;2023-04-26T12:30:49;97959.78;;;22.93;68.78
38880;BME280;25887;30.194;-97.880;2023-04-26T12:33:17;97963.25;;;22.94;68.88
38880;BME280;25887;30.194;-97.880;2023-04-26T12:35:48;97963.25;;;22.94;69.04
38880;BME280;25887;30.194;-97.880;2023-04-26T12:38:15;97970.19;;;22.95;68.66
38880;BME280;25887;30.194;-97.880;2023-04-26T12:40:42;97969.34;;;22.94;68.89
38880;BME280;25887;30.194;-97.880;2023-04-26T12:43:08;97975.41;;;22.95;68.79
38880;BME280;25887;30.194;-97.880;2023-04-26T12:45:35;97980.66;;;22.95;69.30
38880;BME280;25887;30.194;-97.880;2023-04-26T12:48:01;97981.59;;;22.94;68.88
38880;BME280;25887;30.194;-97.880;2023-04-26T12:50:28;97983.38;;;22.93;69.07
38880;BME280;25887;30.194;-97.880;2023-04-26T12:52:54;97995.63;;;22.93;69.37
38880;BME280;25887;30.194;-97.880;2023-04-26T12:55:21;97994.78;;;22.92;69.51
38880;BME280;25887;30.194;-97.880;2023-04-26T12:57:47;97992.06;;;22.94;69.14
38880;BME280;25887;30.194;-97.880;2023-04-26T13:00:14;97995.53;;;22.94;69.05
38880;BME280;25887;30.194;-97.880;2023-04-26T13:02:42;97984.22;;;22.94;69.45